sensor_id;sensor_type;location;lat;lon;timestamp;P1;durP1;ratioP1;P2;durP2;ratioP2
3036;SDS011;1528;52.550;13.408;2023-08-31T00:02:44;8.73;;;8.23;;
3036;SDS011;1528;52.550;13.408;2023-08-31T00:05:30;10.40;;;7.50;;
3036;SDS011;1528;52.550;13.408;2023-08-31T00:08:16;9.00;;;8.50;;
3036;SDS011;1528;52.550;13.408;2023-08-31T00:11:01;9.67;;;9.07;;
3036;SDS011;1528;52.550;13.408;2023-08-31T00:13:48;7.97;;;7.47;;
3036;SDS011;1528;52.550;13.408;2023-08-31T00:16:34;8.13;;;7.63;;
3036;SDS011;1528;52.550;13.408;2023-08-31T00:19:20;8.87;;;8.37;;
3036;SDS011;1528;52.550;13.408;2023-08-31T00:22:06;9.47;;;8.87;;
3036;SDS011;1528;52.550;13.408;2023-08-31T00:24:52;9.20;;;8.70;;
3036;SDS011;1528;52.550;13.408;2023-08-31T00:27:37;8.90;;;8.20;;
3036;SDS011;1528;52.550;13.408;2023-08-31T00:30:26;8.00;;;7.60;;
3036;SDS011;1528;52.550;13.408;2023-08-31T00:33:13;9.50;;;9.00;;
3036;SDS011;1528;52.550;13.408;2023-08-31T00:35:59;8.50;;;8.07;;
3036;SDS011;1528;52.550;13.408;2023-08-31T00:38:47;8.30;;;7.80;;
3036;SDS011;1528;52.550;13.408;2023-08-31T00:41:32;8.73;;;8.23;;
3036;SDS011;1528;52.550;13.408;2023-08-31T00:44:18;7.80;;;7.40;;
3036;SDS011;1528;52.550;13.408;2023-08-31T00:47:06;7.33;;;6.83;;
3036;SDS011;1528;52.550;13.408;2023-08-31T00:49:52;7.50;;;7.10;;
3036;SDS011;1528;52.550;13.408;2023-08-31T00:52:37;8.30;;;7.90;;
3036;SDS011;1528;52.550;13.408;2023-08-31T00:55:23;8.17;;;7.73;;
3036;SDS011;1528;52.550;13.408;2023-08-31T00:58:09;7.93;;;7.53;;
3036;SDS011;1528;52.550;13.408;2023-08-31T01:00:58;7.43;;;7.03;;
3036;SDS011;1528;52.550;13.408;2023-08-31T01:03:50;7.70;;;7.30;;
3036;SDS011;1528;52.550;13.408;2023-08-31T01:06:46;8.60;;;8.00;;
3036;SDS011;1528;52.550;13.408;2023-08-31T01:09:39;8.33;;;7.90;;
3036;SDS011;1528;52.550;13.408;2023-08-31T01:12:29;9.00;;;8.47;;
3036;SDS011;1528;52.550;13.408;2023-08-31T01:15:25;9.30;;;8.80;;
3036;SDS011;1528;52.550;13.408;2023-08-31T01:18:13;8.50;;;8.00;;
3036;SDS011;1528;52.550;13.408;2023-08-31T01:21:05;9.10;;;8.60;;
3036;SDS011;1528;52.550;13.408;2023-08-31T01:23:59;9.30;;;8.80;;
3036;SDS011;1528;52.550;13.408;2023-08-31T01:26:45;8.70;;;8.20;;
3036;SDS011;1528;52.550;13.408;2023-08-31T01:29:32;10.90;;;10.10;;
3036;SDS011;1528;52.550;13.408;2023-08-31T01:32:18;9.73;;;9.13;;
3036;SDS011;1528;52.550;13.408;2023-08-31T01:35:03;9.70;;;9.10;;
3036;SDS011;1528;52.550;13.408;2023-08-31T01:37:51;9.63;;;9.13;;
3036;SDS011;1528;52.550;13.408;2023-08-31T01:40:43;9.40;;;8.90;;
3036;SDS011;1528;52.550;13.408;2023-08-31T01:43:33;9.33;;;8.80;;
3036;SDS011;1528;52.550;13.408;2023-08-31T01:46:20;9.47;;;8.83;;
3036;SDS011;1528;52.550;13.408;2023-08-31T01:49:06;8.23;;;7.73;;
3036;SDS011;1528;52.550;13.408;2023-08-31T01:51:52;8.20;;;7.70;;
3036;SDS011;1528;52.550;13.408;2023-08-31T01:54:38;8.60;;;8.10;;
3036;SDS011;1528;52.550;13.408;2023-08-31T01:57:25;8.90;;;8.30;;
3036;SDS011;1528;52.550;13.408;2023-08-31T02:00:11;8.80;;;8.30;;
3036;SDS011;1528;52.550;13.408;2023-08-31T02:02:57;8.47;;;7.93;;
3036;SDS011;1528;52.550;13.408;2023-08-31T02:05:43;7.80;;;7.23;;
3036;SDS011;1528;52.550;13.408;2023-08-31T02:08:28;8.60;;;8.20;;
3036;SDS011;1528;52.550;13.408;2023-08-31T02:11:14;7.83;;;7.43;;
3036;SDS011;1528;52.550;13.408;2023-08-31T02:14:01;6.57;;;6.17;;
3036;SDS011;1528;52.550;13.408;2023-08-31T02:16:47;6.70;;;6.30;;
3036;SDS011;1528;52.550;13.408;2023-08-31T02:19:33;7.13;;;6.63;;
3036;SDS011;1528;52.550;13.408;2023-08-31T02:22:18;6.73;;;6.43;;
3036;SDS011;1528;52.550;13.408;2023-08-31T02:25:04;7.70;;;7.30;;
3036;SDS011;1528;52.550;13.408;2023-08-31T02:27:50;6.20;;;5.90;;
3036;SDS011;1528;52.550;13.408;2023-08-31T02:30:37;6.93;;;6.53;;
3036;SDS011;1528;52.550;13.408;2023-08-31T02:33:22;6.67;;;6.27;;
3036;SDS011;1528;52.550;13.408;2023-08-31T02:36:08;6.83;;;6.43;;
3036;SDS011;1528;52.550;13.408;2023-08-31T02:38:54;7.20;;;6.80;;
3036;SDS011;1528;52.550;13.408;2023-08-31T02:41:40;6.60;;;6.20;;
3036;SDS011;1528;52.550;13.408;2023-08-31T02:44:26;6.50;;;6.10;;
3036;SDS011;1528;52.550;13.408;2023-08-31T02:47:13;6.60;;;6.20;;
3036;SDS011;1528;52.550;13.408;2023-08-31T02:49:58;6.37;;;5.97;;
3036;SDS011;1528;52.550;13.408;2023-08-31T02:52:44;7.67;;;7.17;;
3036;SDS011;1528;52.550;13.408;2023-08-31T02:55:31;8.87;;;8.37;;
3036;SDS011;1528;52.550;13.408;2023-08-31T02:58:17;10.97;;;10.17;;
3036;SDS011;1528;52.550;13.408;2023-08-31T03:01:06;12.00;;;11.20;;
3036;SDS011;1528;52.550;13.408;2023-08-31T03:03:56;10.70;;;10.00;;
3036;SDS011;1528;52.550;13.408;2023-08-31T03:06:41;12.00;;;11.20;;
3036;SDS011;1528;52.550;13.408;2023-08-31T03:09:27;9.70;;;9.10;;
3036;SDS011;1528;52.550;13.408;2023-08-31T03:12:13;8.50;;;8.00;;
3036;SDS011;1528;52.550;13.408;2023-08-31T03:14:59;7.27;;;6.77;;
3036;SDS011;1528;52.550;13.408;2023-08-31T03:17:44;7.70;;;7.20;;
3036;SDS011;1528;52.550;13.408;2023-08-31T03:20:31;8.63;;;8.03;;
3036;SDS011;1528;52.550;13.408;2023-08-31T03:23:17;6.30;;;5.93;;
3036;SDS011;1528;52.550;13.408;2023-08-31T03:26:06;7.47;;;7.07;;
3036;SDS011;1528;52.550;13.408;2023-08-31T03:28:52;7.10;;;6.70;;
3036;SDS011;1528;52.550;13.408;2023-08-31T03:31:37;7.30;;;6.80;;
3036;SDS011;1528;52.550;13.408;2023-08-31T03:34:23;10.00;;;9.43;;
3036;SDS011;1528;52.550;13.408;2023-08-31T03:37:10;7.40;;;6.90;;
3036;SDS011;1528;52.550;13.408;2023-08-31T03:39:56;8.30;;;7.70;;
3036;SDS011;1528;52.550;13.408;2023-08-31T03:42:41;7.00;;;6.60;;
3036;SDS011;1528;52.550;13.408;2023-08-31T03:45:27;6.73;;;6.27;;
3036;SDS011;1528;52.550;13.408;2023-08-31T03:48:12;7.07;;;6.67;;
3036;SDS011;1528;52.550;13.408;2023-08-31T03:50:58;7.37;;;6.87;;
3036;SDS011;1528;52.550;13.408;2023-08-31T03:53:45;7.47;;;7.07;;
3036;SDS011;1528;52.550;13.408;2023-08-31T03:56:31;7.27;;;6.77;;
3036;SDS011;1528;52.550;13.408;2023-08-31T03:59:16;7.47;;;7.00;;
3036;SDS011;1528;52.550;13.408;2023-08-31T04:02:02;7.70;;;7.30;;
3036;SDS011;1528;52.550;13.408;2023-08-31T04:04:49;8.27;;;7.77;;
3036;SDS011;1528;52.550;13.408;2023-08-31T04:07:34;9.50;;;8.50;;
3036;SDS011;1528;52.550;13.408;2023-08-31T04:10:22;8.80;;;8.17;;
3036;SDS011;1528;52.550;13.408;2023-08-31T04:13:07;8.00;;;7.50;;
3036;SDS011;1528;52.550;13.408;2023-08-31T04:15:53;9.10;;;8.40;;
3036;SDS011;1528;52.550;13.408;2023-08-31T04:18:39;8.63;;;7.93;;
3036;SDS011;1528;52.550;13.408;2023-08-31T04:21:24;9.40;;;8.80;;
3036;SDS011;1528;52.550;13.408;2023-08-31T04:24:10;9.20;;;8.60;;
3036;SDS011;1528;52.550;13.408;2023-08-31T04:26:57;9.90;;;9.10;;
3036;SDS011;1528;52.550;13.408;2023-08-31T04:29:43;10.87;;;10.17;;
3036;SDS011;1528;52.550;13.408;2023-08-31T04:32:28;10.10;;;9.40;;
3036;SDS011;1528;52.550;13.408;2023-08-31T04:35:14;9.77;;;9.10;;
3036;SDS011;1528;52.550;13.408;2023-08-31T04:38:00;10.63;;;9.83;;
3036;SDS011;1528;52.550;13.408;2023-08-31T04:40:45;9.30;;;8.50;;
3036;SDS011;1528;52.550;13.408;2023-08-31T04:43:32;11.97;;;10.97;;
3036;SDS011;1528;52.550;13.408;2023-08-31T04:46:18;12.33;;;11.53;;
3036;SDS011;1528;52.550;13.408;2023-08-31T04:49:04;12.50;;;11.50;;
3036;SDS011;1528;52.550;13.408;2023-08-31T04:51:49;11.03;;;10.13;;
3036;SDS011;1528;52.550;13.408;2023-08-31T04:54:35;13.00;;;12.00;;
3036;SDS011;1528;52.550;13.408;2023-08-31T04:57:20;14.03;;;13.03;;
3036;SDS011;1528;52.550;13.408;2023-08-31T05:00:09;13.10;;;12.10;;
3036;SDS011;1528;52.550;13.408;2023-08-31T05:02:55;16.10;;;14.80;;
3036;SDS011;1528;52.550;13.408;2023-08-31T05:05:41;14.60;;;13.50;;
3036;SDS011;1528;52.550;13.408;2023-08-31T05:08:27;14.57;;;13.47;;
3036;SDS011;1528;52.550;13.408;2023-08-31T05:11:13;14.10;;;12.97;;
3036;SDS011;1528;52.550;13.408;2023-08-31T05:13:58;14.30;;;13.33;;
3036;SDS011;1528;52.550;13.408;2023-08-31T05:16:45;13.50;;;12.40;;
3036;SDS011;1528;52.550;13.408;2023-08-31T05:19:32;13.43;;;12.33;;
3036;SDS011;1528;52.550;13.408;2023-08-31T05:22:17;13.23;;;12.30;;
3036;SDS011;1528;52.550;13.408;2023-08-31T05:25:03;14.27;;;13.27;;
3036;SDS011;1528;52.550;13.408;2023-08-31T05:27:49;14.73;;;13.73;;
3036;SDS011;1528;52.550;13.408;2023-08-31T05:30:34;14.63;;;13.63;;
3036;SDS011;1528;52.550;13.408;2023-08-31T05:33:22;13.77;;;12.80;;
3036;SDS011;1528;52.550;13.408;2023-08-31T05:36:09;13.30;;;12.40;;
3036;SDS011;1528;52.550;13.408;2023-08-31T05:38:54;14.23;;;13.20;;
3036;SDS011;1528;52.550;13.408;2023-08-31T05:41:40;14.37;;;13.37;;
3036;SDS011;1528;52.550;13.408;2023-08-31T05:44:26;13.77;;;12.80;;
3036;SDS011;1528;52.550;13.408;2023-08-31T05:47:14;14.80;;;13.80;;
3036;SDS011;1528;52.550;13.408;2023-08-31T05:50:01;15.00;;;14.00;;
3036;SDS011;1528;52.550;13.408;2023-08-31T05:52:46;14.53;;;13.63;;
3036;SDS011;1528;52.550;13.408;2023-08-31T05:55:32;15.10;;;14.00;;
3036;SDS011;1528;52.550;13.408;2023-08-31T05:58:18;13.77;;;12.53;;
3036;SDS011;1528;52.550;13.408;2023-08-31T06:01:05;15.33;;;14.30;;
3036;SDS011;1528;52.550;13.408;2023-08-31T06:03:51;16.33;;;15.40;;
3036;SDS011;1528;52.550;13.408;2023-08-31T06:06:38;15.37;;;14.27;;
3036;SDS011;1528;52.550;13.408;2023-08-31T06:09:23;14.07;;;13.07;;
3036;SDS011;1528;52.550;13.408;2023-08-31T06:12:09;13.80;;;12.80;;
3036;SDS011;1528;52.550;13.408;2023-08-31T06:14:55;17.17;;;15.83;;
3036;SDS011;1528;52.550;13.408;2023-08-31T06:17:40;15.00;;;13.83;;
3036;SDS011;1528;52.550;13.408;2023-08-31T06:20:29;14.73;;;12.77;;
3036;SDS011;1528;52.550;13.408;2023-08-31T06:23:16;14.83;;;13.73;;
3036;SDS011;1528;52.550;13.408;2023-08-31T06:26:01;13.53;;;12.60;;
3036;SDS011;1528;52.550;13.408;2023-08-31T06:28:47;15.40;;;14.30;;
3036;SDS011;1528;52.550;13.408;2023-08-31T06:31:34;14.20;;;13.03;;
3036;SDS011;1528;52.550;13.408;2023-08-31T06:34:20;13.43;;;12.47;;
3036;SDS011;1528;52.550;13.408;2023-08-31T06:37:05;13.40;;;12.40;;
3036;SDS011;1528;52.550;13.408;2023-08-31T06:39:52;14.87;;;13.60;;
3036;SDS011;1528;52.550;13.408;2023-08-31T06:42:37;14.07;;;13.10;;
3036;SDS011;1528;52.550;13.408;2023-08-31T06:45:23;13.37;;;12.57;;
3036;SDS011;1528;52.550;13.408;2023-08-31T06:48:12;12.10;;;11.20;;
3036;SDS011;1528;52.550;13.408;2023-08-31T06:50:57;14.00;;;12.80;;
3036;SDS011;1528;52.550;13.408;2023-08-31T06:53:43;14.03;;;12.90;;
3036;SDS011;1528;52.550;13.408;2023-08-31T06:56:30;15.63;;;14.30;;
3036;SDS011;1528;52.550;13.408;2023-08-31T06:59:16;13.57;;;12.57;;
3036;SDS011;1528;52.550;13.408;2023-08-31T07:02:02;11.33;;;10.53;;
3036;SDS011;1528;52.550;13.408;2023-08-31T07:04:48;13.70;;;12.70;;
3036;SDS011;1528;52.550;13.408;2023-08-31T07:07:35;12.83;;;11.73;;
3036;SDS011;1528;52.550;13.408;2023-08-31T07:10:21;13.10;;;12.13;;
3036;SDS011;1528;52.550;13.408;2023-08-31T07:13:08;13.40;;;12.50;;
3036;SDS011;1528;52.550;13.408;2023-08-31T07:15:54;16.10;;;14.70;;
3036;SDS011;1528;52.550;13.408;2023-08-31T07:18:39;12.67;;;11.77;;
3036;SDS011;1528;52.550;13.408;2023-08-31T07:21:25;12.93;;;12.03;;
3036;SDS011;1528;52.550;13.408;2023-08-31T07:24:11;18.80;;;12.10;;
3036;SDS011;1528;52.550;13.408;2023-08-31T07:26:56;12.67;;;11.87;;
3036;SDS011;1528;52.550;13.408;2023-08-31T07:29:44;13.10;;;12.30;;
3036;SDS011;1528;52.550;13.408;2023-08-31T07:32:29;12.27;;;11.47;;
3036;SDS011;1528;52.550;13.408;2023-08-31T07:35:15;13.77;;;12.87;;
3036;SDS011;1528;52.550;13.408;2023-08-31T07:38:01;11.23;;;10.20;;
3036;SDS011;1528;52.550;13.408;2023-08-31T07:40:47;10.90;;;10.20;;
3036;SDS011;1528;52.550;13.408;2023-08-31T07:43:33;11.20;;;10.30;;
3036;SDS011;1528;52.550;13.408;2023-08-31T07:46:20;10.77;;;9.77;;
3036;SDS011;1528;52.550;13.408;2023-08-31T07:49:05;10.00;;;9.03;;
3036;SDS011;1528;52.550;13.408;2023-08-31T07:51:51;10.30;;;9.57;;
3036;SDS011;1528;52.550;13.408;2023-08-31T07:54:37;8.10;;;7.60;;
3036;SDS011;1528;52.550;13.408;2023-08-31T07:57:22;8.83;;;8.03;;
3036;SDS011;1528;52.550;13.408;2023-08-31T08:00:08;8.23;;;7.63;;
3036;SDS011;1528;52.550;13.408;2023-08-31T08:02:55;8.80;;;8.03;;
3036;SDS011;1528;52.550;13.408;2023-08-31T08:05:41;8.27;;;7.47;;
3036;SDS011;1528;52.550;13.408;2023-08-31T08:08:26;8.67;;;8.07;;
3036;SDS011;1528;52.550;13.408;2023-08-31T08:11:12;8.40;;;7.40;;
3036;SDS011;1528;52.550;13.408;2023-08-31T08:13:57;10.13;;;9.40;;
3036;SDS011;1528;52.550;13.408;2023-08-31T08:16:43;8.33;;;7.57;;
3036;SDS011;1528;52.550;13.408;2023-08-31T08:19:30;8.67;;;7.97;;
3036;SDS011;1528;52.550;13.408;2023-08-31T08:22:16;9.17;;;8.37;;
3036;SDS011;1528;52.550;13.408;2023-08-31T08:25:01;8.53;;;7.83;;
3036;SDS011;1528;52.550;13.408;2023-08-31T08:27:47;8.93;;;8.43;;
3036;SDS011;1528;52.550;13.408;2023-08-31T08:30:33;8.97;;;8.27;;
3036;SDS011;1528;52.550;13.408;2023-08-31T08:33:19;8.13;;;7.53;;
3036;SDS011;1528;52.550;13.408;2023-08-31T08:36:06;7.60;;;7.00;;
3036;SDS011;1528;52.550;13.408;2023-08-31T08:38:51;6.60;;;6.10;;
3036;SDS011;1528;52.550;13.408;2023-08-31T08:41:37;7.77;;;7.10;;
3036;SDS011;1528;52.550;13.408;2023-08-31T08:44:25;8.93;;;7.60;;
3036;SDS011;1528;52.550;13.408;2023-08-31T08:47:13;5.70;;;5.23;;
3036;SDS011;1528;52.550;13.408;2023-08-31T08:49:59;6.90;;;6.33;;
3036;SDS011;1528;52.550;13.408;2023-08-31T08:52:47;6.20;;;5.40;;
3036;SDS011;1528;52.550;13.408;2023-08-31T08:55:33;6.33;;;5.70;;
3036;SDS011;1528;52.550;13.408;2023-08-31T08:58:20;5.80;;;5.40;;
3036;SDS011;1528;52.550;13.408;2023-08-31T09:01:06;7.73;;;4.80;;
3036;SDS011;1528;52.550;13.408;2023-08-31T09:03:53;6.03;;;5.53;;
3036;SDS011;1528;52.550;13.408;2023-08-31T09:06:39;6.30;;;5.70;;
3036;SDS011;1528;52.550;13.408;2023-08-31T09:09:27;5.57;;;5.03;;
3036;SDS011;1528;52.550;13.408;2023-08-31T09:12:14;6.13;;;5.27;;
3036;SDS011;1528;52.550;13.408;2023-08-31T09:15:00;5.30;;;4.90;;
3036;SDS011;1528;52.550;13.408;2023-08-31T09:17:47;5.60;;;5.17;;
3036;SDS011;1528;52.550;13.408;2023-08-31T09:20:42;5.50;;;4.67;;
3036;SDS011;1528;52.550;13.408;2023-08-31T09:23:29;7.80;;;7.20;;
3036;SDS011;1528;52.550;13.408;2023-08-31T09:26:16;5.97;;;5.53;;
3036;SDS011;1528;52.550;13.408;2023-08-31T09:29:03;8.20;;;7.47;;
3036;SDS011;1528;52.550;13.408;2023-08-31T09:31:49;5.73;;;5.23;;
3036;SDS011;1528;52.550;13.408;2023-08-31T09:34:35;5.27;;;4.87;;
3036;SDS011;1528;52.550;13.408;2023-08-31T09:37:21;7.33;;;4.77;;
3036;SDS011;1528;52.550;13.408;2023-08-31T09:40:07;6.13;;;5.53;;
3036;SDS011;1528;52.550;13.408;2023-08-31T09:42:56;5.93;;;5.37;;
3036;SDS011;1528;52.550;13.408;2023-08-31T09:45:42;5.93;;;5.53;;
3036;SDS011;1528;52.550;13.408;2023-08-31T09:48:28;6.57;;;5.97;;
3036;SDS011;1528;52.550;13.408;2023-08-31T09:51:14;5.33;;;4.97;;
3036;SDS011;1528;52.550;13.408;2023-08-31T09:54:02;5.30;;;4.90;;
3036;SDS011;1528;52.550;13.408;2023-08-31T09:56:50;6.90;;;6.30;;
3036;SDS011;1528;52.550;13.408;2023-08-31T09:59:41;6.10;;;5.57;;
3036;SDS011;1528;52.550;13.408;2023-08-31T10:02:27;5.10;;;4.70;;
3036;SDS011;1528;52.550;13.408;2023-08-31T10:05:15;8.20;;;5.10;;
3036;SDS011;1528;52.550;13.408;2023-08-31T10:08:01;5.10;;;4.70;;
3036;SDS011;1528;52.550;13.408;2023-08-31T10:10:47;5.23;;;4.87;;
3036;SDS011;1528;52.550;13.408;2023-08-31T10:13:33;5.23;;;4.83;;
3036;SDS011;1528;52.550;13.408;2023-08-31T10:16:23;6.67;;;6.07;;
3036;SDS011;1528;52.550;13.408;2023-08-31T10:19:11;4.83;;;4.43;;
3036;SDS011;1528;52.550;13.408;2023-08-31T10:21:56;6.30;;;5.90;;
3036;SDS011;1528;52.550;13.408;2023-08-31T10:24:56;5.40;;;5.00;;
3036;SDS011;1528;52.550;13.408;2023-08-31T10:27:42;5.23;;;4.73;;
3036;SDS011;1528;52.550;13.408;2023-08-31T10:30:30;5.30;;;4.80;;
3036;SDS011;1528;52.550;13.408;2023-08-31T10:33:21;6.73;;;4.80;;
3036;SDS011;1528;52.550;13.408;2023-08-31T10:36:12;6.13;;;4.37;;
3036;SDS011;1528;52.550;13.408;2023-08-31T10:39:00;10.40;;;5.73;;
3036;SDS011;1528;52.550;13.408;2023-08-31T10:41:52;6.40;;;5.77;;
3036;SDS011;1528;52.550;13.408;2023-08-31T10:44:41;4.80;;;4.50;;
3036;SDS011;1528;52.550;13.408;2023-08-31T10:47:36;4.10;;;3.80;;
3036;SDS011;1528;52.550;13.408;2023-08-31T10:50:24;5.03;;;4.20;;
3036;SDS011;1528;52.550;13.408;2023-08-31T10:53:10;5.03;;;4.63;;
3036;SDS011;1528;52.550;13.408;2023-08-31T10:55:59;5.20;;;4.80;;
3036;SDS011;1528;52.550;13.408;2023-08-31T10:58:55;5.57;;;5.07;;
3036;SDS011;1528;52.550;13.408;2023-08-31T11:01:51;4.40;;;4.00;;
3036;SDS011;1528;52.550;13.408;2023-08-31T11:04:53;4.80;;;4.40;;
3036;SDS011;1528;52.550;13.408;2023-08-31T11:07:41;5.50;;;5.00;;
3036;SDS011;1528;52.550;13.408;2023-08-31T11:10:28;5.73;;;4.83;;
3036;SDS011;1528;52.550;13.408;2023-08-31T11:13:15;5.37;;;4.87;;
3036;SDS011;1528;52.550;13.408;2023-08-31T11:16:02;5.23;;;4.93;;
3036;SDS011;1528;52.550;13.408;2023-08-31T11:18:48;5.50;;;5.00;;
3036;SDS011;1528;52.550;13.408;2023-08-31T11:21:35;5.47;;;5.00;;
3036;SDS011;1528;52.550;13.408;2023-08-31T11:24:24;6.57;;;5.97;;
3036;SDS011;1528;52.550;13.408;2023-08-31T11:27:10;5.93;;;5.43;;
3036;SDS011;1528;52.550;13.408;2023-08-31T11:29:55;6.43;;;5.93;;
3036;SDS011;1528;52.550;13.408;2023-08-31T11:32:45;7.30;;;5.50;;
3036;SDS011;1528;52.550;13.408;2023-08-31T11:35:32;4.57;;;4.07;;
3036;SDS011;1528;52.550;13.408;2023-08-31T11:38:20;7.07;;;4.33;;
3036;SDS011;1528;52.550;13.408;2023-08-31T11:41:07;7.43;;;6.17;;
3036;SDS011;1528;52.550;13.408;2023-08-31T11:43:53;7.07;;;5.40;;
3036;SDS011;1528;52.550;13.408;2023-08-31T11:46:39;6.50;;;5.07;;
3036;SDS011;1528;52.550;13.408;2023-08-31T11:49:28;5.93;;;5.40;;
3036;SDS011;1528;52.550;13.408;2023-08-31T11:52:13;6.17;;;5.73;;
3036;SDS011;1528;52.550;13.408;2023-08-31T11:54:59;6.00;;;5.50;;
3036;SDS011;1528;52.550;13.408;2023-08-31T11:57:50;6.40;;;5.90;;
3036;SDS011;1528;52.550;13.408;2023-08-31T12:00:38;6.37;;;5.87;;
3036;SDS011;1528;52.550;13.408;2023-08-31T12:03:24;5.17;;;4.70;;
3036;SDS011;1528;52.550;13.408;2023-08-31T12:06:10;6.40;;;5.90;;
3036;SDS011;1528;52.550;13.408;2023-08-31T12:08:55;6.43;;;6.03;;
3036;SDS011;1528;52.550;13.408;2023-08-31T12:11:41;5.33;;;4.97;;
3036;SDS011;1528;52.550;13.408;2023-08-31T12:14:28;6.27;;;5.87;;
3036;SDS011;1528;52.550;13.408;2023-08-31T12:17:18;5.20;;;4.90;;
3036;SDS011;1528;52.550;13.408;2023-08-31T12:20:04;6.23;;;5.73;;
3036;SDS011;1528;52.550;13.408;2023-08-31T12:22:51;6.47;;;5.87;;
3036;SDS011;1528;52.550;13.408;2023-08-31T12:25:36;6.00;;;5.50;;
3036;SDS011;1528;52.550;13.408;2023-08-31T12:28:22;5.63;;;5.23;;
3036;SDS011;1528;52.550;13.408;2023-08-31T12:31:09;6.20;;;5.80;;
3036;SDS011;1528;52.550;13.408;2023-08-31T12:33:55;6.33;;;5.83;;
3036;SDS011;1528;52.550;13.408;2023-08-31T12:36:41;6.53;;;5.93;;
3036;SDS011;1528;52.550;13.408;2023-08-31T12:39:26;6.30;;;5.80;;
3036;SDS011;1528;52.550;13.408;2023-08-31T12:42:12;10.07;;;9.27;;
3036;SDS011;1528;52.550;13.408;2023-08-31T12:44:58;6.57;;;5.97;;
3036;SDS011;1528;52.550;13.408;2023-08-31T12:47:45;6.60;;;6.10;;
3036;SDS011;1528;52.550;13.408;2023-08-31T12:50:31;6.50;;;5.90;;
3036;SDS011;1528;52.550;13.408;2023-08-31T12:53:17;7.00;;;6.40;;
3036;SDS011;1528;52.550;13.408;2023-08-31T12:56:02;5.97;;;5.43;;
3036;SDS011;1528;52.550;13.408;2023-08-31T12:58:49;5.83;;;5.33;;
3036;SDS011;1528;52.550;13.408;2023-08-31T13:01:35;6.20;;;5.80;;
3036;SDS011;1528;52.550;13.408;2023-08-31T13:04:23;5.87;;;5.20;;
3036;SDS011;1528;52.550;13.408;2023-08-31T13:07:08;5.93;;;5.53;;
3036;SDS011;1528;52.550;13.408;2023-08-31T13:09:54;5.50;;;5.10;;
3036;SDS011;1528;52.550;13.408;2023-08-31T13:12:40;5.90;;;5.40;;
3036;SDS011;1528;52.550;13.408;2023-08-31T13:15:25;5.47;;;5.07;;
3036;SDS011;1528;52.550;13.408;2023-08-31T13:18:11;6.10;;;5.70;;
3036;SDS011;1528;52.550;13.408;2023-08-31T13:20:58;5.93;;;4.90;;
3036;SDS011;1528;52.550;13.408;2023-08-31T13:23:46;5.17;;;4.77;;
3036;SDS011;1528;52.550;13.408;2023-08-31T13:26:32;4.87;;;4.47;;
3036;SDS011;1528;52.550;13.408;2023-08-31T13:29:17;5.17;;;4.77;;
3036;SDS011;1528;52.550;13.408;2023-08-31T13:32:04;5.33;;;4.93;;
3036;SDS011;1528;52.550;13.408;2023-08-31T13:34:51;5.33;;;5.03;;
3036;SDS011;1528;52.550;13.408;2023-08-31T13:37:38;5.97;;;5.57;;
3036;SDS011;1528;52.550;13.408;2023-08-31T13:40:24;6.50;;;6.10;;
3036;SDS011;1528;52.550;13.408;2023-08-31T13:43:09;5.67;;;5.27;;
3036;SDS011;1528;52.550;13.408;2023-08-31T13:45:55;5.83;;;5.53;;
3036;SDS011;1528;52.550;13.408;2023-08-31T13:48:41;5.83;;;5.53;;
3036;SDS011;1528;52.550;13.408;2023-08-31T13:51:26;5.80;;;5.40;;
3036;SDS011;1528;52.550;13.408;2023-08-31T13:54:13;4.83;;;4.43;;
3036;SDS011;1528;52.550;13.408;2023-08-31T13:56:59;6.30;;;5.90;;
3036;SDS011;1528;52.550;13.408;2023-08-31T13:59:44;4.97;;;4.60;;
3036;SDS011;1528;52.550;13.408;2023-08-31T14:02:30;4.80;;;4.50;;
3036;SDS011;1528;52.550;13.408;2023-08-31T14:05:16;4.77;;;4.37;;
3036;SDS011;1528;52.550;13.408;2023-08-31T14:08:01;4.93;;;4.53;;
3036;SDS011;1528;52.550;13.408;2023-08-31T14:10:49;5.40;;;5.00;;
3036;SDS011;1528;52.550;13.408;2023-08-31T14:13:37;5.00;;;3.80;;
3036;SDS011;1528;52.550;13.408;2023-08-31T14:16:23;4.63;;;4.10;;
3036;SDS011;1528;52.550;13.408;2023-08-31T14:19:08;3.73;;;3.50;;
3036;SDS011;1528;52.550;13.408;2023-08-31T14:21:55;4.63;;;4.27;;
3036;SDS011;1528;52.550;13.408;2023-08-31T14:24:40;5.10;;;4.60;;
3036;SDS011;1528;52.550;13.408;2023-08-31T14:27:27;4.97;;;4.57;;
3036;SDS011;1528;52.550;13.408;2023-08-31T14:30:13;6.00;;;5.50;;
3036;SDS011;1528;52.550;13.408;2023-08-31T14:32:59;5.60;;;5.20;;
3036;SDS011;1528;52.550;13.408;2023-08-31T14:35:45;4.70;;;4.40;;
3036;SDS011;1528;52.550;13.408;2023-08-31T14:38:30;4.50;;;4.10;;
3036;SDS011;1528;52.550;13.408;2023-08-31T14:41:16;4.30;;;4.00;;
3036;SDS011;1528;52.550;13.408;2023-08-31T14:44:03;4.20;;;3.90;;
3036;SDS011;1528;52.550;13.408;2023-08-31T14:46:49;3.70;;;3.40;;
3036;SDS011;1528;52.550;13.408;2023-08-31T14:49:38;4.63;;;4.33;;
3036;SDS011;1528;52.550;13.408;2023-08-31T14:52:24;5.10;;;4.67;;
3036;SDS011;1528;52.550;13.408;2023-08-31T14:55:10;5.90;;;5.60;;
3036;SDS011;1528;52.550;13.408;2023-08-31T14:57:55;5.33;;;5.03;;
3036;SDS011;1528;52.550;13.408;2023-08-31T15:00:43;5.40;;;4.97;;
3036;SDS011;1528;52.550;13.408;2023-08-31T15:03:29;5.77;;;5.47;;
3036;SDS011;1528;52.550;13.408;2023-08-31T15:06:15;5.80;;;5.40;;
3036;SDS011;1528;52.550;13.408;2023-08-31T15:09:00;5.93;;;5.43;;
3036;SDS011;1528;52.550;13.408;2023-08-31T15:11:47;6.13;;;5.77;;
3036;SDS011;1528;52.550;13.408;2023-08-31T15:14:33;5.70;;;5.20;;
3036;SDS011;1528;52.550;13.408;2023-08-31T15:17:20;4.60;;;4.40;;
3036;SDS011;1528;52.550;13.408;2023-08-31T15:20:06;5.30;;;5.00;;
3036;SDS011;1528;52.550;13.408;2023-08-31T15:22:53;5.10;;;4.80;;
3036;SDS011;1528;52.550;13.408;2023-08-31T15:25:39;4.87;;;4.57;;
3036;SDS011;1528;52.550;13.408;2023-08-31T15:28:24;5.87;;;5.50;;
3036;SDS011;1528;52.550;13.408;2023-08-31T15:31:11;5.73;;;5.43;;
3036;SDS011;1528;52.550;13.408;2023-08-31T15:33:59;5.20;;;4.90;;
3036;SDS011;1528;52.550;13.408;2023-08-31T15:36:44;5.27;;;4.97;;
3036;SDS011;1528;52.550;13.408;2023-08-31T15:39:30;7.10;;;4.10;;
3036;SDS011;1528;52.550;13.408;2023-08-31T15:42:15;3.73;;;3.53;;
3036;SDS011;1528;52.550;13.408;2023-08-31T15:45:01;4.07;;;3.80;;
3036;SDS011;1528;52.550;13.408;2023-08-31T15:47:47;4.13;;;3.83;;
3036;SDS011;1528;52.550;13.408;2023-08-31T15:50:34;4.57;;;4.27;;
3036;SDS011;1528;52.550;13.408;2023-08-31T15:53:19;4.27;;;3.93;;
3036;SDS011;1528;52.550;13.408;2023-08-31T15:56:05;4.30;;;3.90;;
3036;SDS011;1528;52.550;13.408;2023-08-31T15:58:51;4.50;;;4.20;;
3036;SDS011;1528;52.550;13.408;2023-08-31T16:01:36;5.33;;;4.83;;
3036;SDS011;1528;52.550;13.408;2023-08-31T16:04:22;3.83;;;3.53;;
3036;SDS011;1528;52.550;13.408;2023-08-31T16:07:08;4.10;;;3.87;;
3036;SDS011;1528;52.550;13.408;2023-08-31T16:09:55;3.93;;;3.63;;
3036;SDS011;1528;52.550;13.408;2023-08-31T16:12:41;3.97;;;3.67;;
3036;SDS011;1528;52.550;13.408;2023-08-31T16:15:27;4.50;;;4.20;;
3036;SDS011;1528;52.550;13.408;2023-08-31T16:18:13;4.50;;;4.13;;
3036;SDS011;1528;52.550;13.408;2023-08-31T16:20:58;4.57;;;4.30;;
3036;SDS011;1528;52.550;13.408;2023-08-31T16:23:46;4.37;;;4.07;;
3036;SDS011;1528;52.550;13.408;2023-08-31T16:26:32;4.90;;;4.50;;
3036;SDS011;1528;52.550;13.408;2023-08-31T16:29:17;4.30;;;4.00;;
3036;SDS011;1528;52.550;13.408;2023-08-31T16:32:03;4.53;;;4.33;;
3036;SDS011;1528;52.550;13.408;2023-08-31T16:34:50;3.93;;;3.73;;
3036;SDS011;1528;52.550;13.408;2023-08-31T16:37:36;5.67;;;5.17;;
3036;SDS011;1528;52.550;13.408;2023-08-31T16:40:23;6.00;;;5.50;;
3036;SDS011;1528;52.550;13.408;2023-08-31T16:43:09;5.63;;;5.23;;
3036;SDS011;1528;52.550;13.408;2023-08-31T16:45:59;5.33;;;5.03;;
3036;SDS011;1528;52.550;13.408;2023-08-31T16:48:45;7.00;;;5.80;;
3036;SDS011;1528;52.550;13.408;2023-08-31T16:51:30;4.70;;;4.40;;
3036;SDS011;1528;52.550;13.408;2023-08-31T16:54:16;6.53;;;6.13;;